Time;durP1;ratioP1;P1;durP2;ratioP2;P2;SDS_P1;SDS_P2;PMS_P1;PMS_P2;Temp;Humidity;BMP_temperature;BMP_pressure;BME280_temperature;BME280_humidity;BME280_pressure;Samples;Min_cycle;Max_cycle;Signal;HPM_P1;HPM_P2
2022/11/14 00:02:15;;;;;;;24.13;16.63;;;;;;;;;;4997179;28;20137;-70
2022/11/14 00:05:00;;;;;;;24.35;16.73;;;;;;;;;;5001157;28;20074;-70
2022/11/14 00:07:44;;;;;;;20.75;14.23;;;;;;;;;;4998846;28;20064;-70
2022/11/14 00:10:29;;;;;;;23.23;15.90;;;;;;;;;;4992744;28;20140;-72
2022/11/14 00:13:13;;;;;;;26.95;16.30;;;;;;;;;;4996936;28;20029;-72
2022/11/14 00:15:57;;;;;;;26.20;15.95;;;;;;;;;;5004449;28;20036;-70
2022/11/14 00:18:42;;;;;;;24.40;15.50;;;;;;;;;;4995265;28;20091;-70
2022/11/14 00:21:26;;;;;;;19.98;14.90;;;;;;;;;;4997819;28;20038;-69
2022/11/14 00:24:10;;;;;;;22.25;15.23;;;;;;;;;;4999834;28;20039;-69
2022/11/14 00:26:54;;;;;;;20.58;14.70;;;;;;;;;;4992137;28;20284;-69
2022/11/14 00:29:39;;;;;;;21.23;14.88;;;;;;;;;;4997651;28;20342;-70
2022/11/14 00:32:23;;;;;;;24.48;15.63;;;;;;;;;;4996781;28;20107;-70
2022/11/14 00:35:08;;;;;;;23.13;15.05;;;;;;;;;;4996057;28;20062;-70
2022/11/14 00:37:52;;;;;;;22.00;16.35;;;;;;;;;;4995111;28;20215;-70
2022/11/14 00:40:36;;;;;;;19.75;14.20;;;;;;;;;;4999269;28;20033;-70
2022/11/14 00:43:21;;;;;;;21.40;15.85;;;;;;;;;;4996790;28;20072;-70
2022/11/14 00:46:05;;;;;;;19.92;14.80;;;;;;;;;;4991128;28;20030;-70
2022/11/14 00:48:49;;;;;;;20.23;14.75;;;;;;;;;;4999951;28;20046;-70
2022/11/14 00:51:34;;;;;;;22.83;16.95;;;;;;;;;;5003222;28;20292;-70
2022/11/14 00:54:18;;;;;;;21.45;15.05;;;;;;;;;;4996288;28;20049;-70
2022/11/14 00:57:03;;;;;;;21.58;16.13;;;;;;;;;;4997900;28;20503;-70
2022/11/14 00:59:47;;;;;;;22.13;15.60;;;;;;;;;;4998548;28;20486;-70
2022/11/14 01:02:31;;;;;;;23.38;15.90;;;;;;;;;;4995839;28;20037;-70
2022/11/14 01:05:16;;;;;;;20.52;15.13;;;;;;;;;;5005189;28;20084;-70
2022/11/14 01:08:00;;;;;;;18.77;13.68;;;;;;;;;;4986610;28;20034;-70
2022/11/14 01:10:48;;;;;;;22.25;15.90;;;;;;;;;;4994718;28;20044;-70
2022/11/14 01:13:32;;;;;;;17.95;14.18;;;;;;;;;;4989243;28;20065;-70
2022/11/14 01:16:18;;;;;;;22.23;15.55;;;;;;;;;;4988071;28;20034;-70
2022/11/14 01:19:02;;;;;;;17.95;14.13;;;;;;;;;;4994358;28;20069;-70
2022/11/14 01:21:46;;;;;;;20.40;14.55;;;;;;;;;;4996567;28;20448;-70
2022/11/14 01:24:32;;;;;;;22.17;14.13;;;;;;;;;;4990750;28;20530;-70
2022/11/14 01:27:16;;;;;;;20.60;13.75;;;;;;;;;;4989263;28;20042;-70
2022/11/14 01:30:00;;;;;;;17.77;13.80;;;;;;;;;;4999090;28;20045;-70
2022/11/14 01:32:45;;;;;;;21.23;14.57;;;;;;;;;;4995066;28;20034;-70
2022/11/14 01:35:31;;;;;;;19.77;13.90;;;;;;;;;;4989739;28;20092;-70
2022/11/14 01:38:15;;;;;;;19.13;13.73;;;;;;;;;;4995521;28;20067;-70
2022/11/14 01:40:59;;;;;;;20.13;13.82;;;;;;;;;;4998039;28;20041;-70
2022/11/14 01:43:43;;;;;;;27.58;15.18;;;;;;;;;;4988064;28;20397;-70
2022/11/14 01:46:32;;;;;;;21.33;13.60;;;;;;;;;;4998108;28;20503;-70
2022/11/14 01:49:20;;;;;;;19.13;13.23;;;;;;;;;;4997593;28;20042;-70
2022/11/14 01:52:09;;;;;;;20.48;13.82;;;;;;;;;;4988562;28;20117;-70
2022/11/14 01:55:01;;;;;;;26.90;15.70;;;;;;;;;;4994296;28;20046;-70
2022/11/14 01:57:48;;;;;;;18.08;14.02;;;;;;;;;;5007773;28;20092;-70
2022/11/14 02:00:32;;;;;;;16.55;13.32;;;;;;;;;;5001482;28;20081;-70
2022/11/14 02:03:18;;;;;;;25.17;12.27;;;;;;;;;;5001733;28;20780;-70
2022/11/14 02:06:05;;;;;;;12.85;9.05;;;;;;;;;;4993921;28;20409;-70
2022/11/14 02:08:50;;;;;;;24.83;13.30;;;;;;;;;;4987956;28;20072;-70
2022/11/14 02:11:38;;;;;;;21.65;13.75;;;;;;;;;;4992725;28;20048;-70
2022/11/14 02:14:23;;;;;;;46.58;13.52;;;;;;;;;;4993349;28;20053;-70
2022/11/14 02:17:07;;;;;;;36.08;13.75;;;;;;;;;;4990122;28;20042;-70
2022/11/14 02:20:05;;;;;;;22.70;15.15;;;;;;;;;;5011899;28;20049;-70
2022/11/14 02:22:49;;;;;;;22.30;16.50;;;;;;;;;;4993123;28;20046;-70
2022/11/14 02:25:33;;;;;;;14.52;10.82;;;;;;;;;;4987880;28;20045;-70
2022/11/14 02:28:19;;;;;;;23.80;17.13;;;;;;;;;;5011039;28;20045;-70
2022/11/14 02:31:03;;;;;;;20.17;13.65;;;;;;;;;;4994047;28;20040;-70
2022/11/14 02:33:47;;;;;;;28.63;15.45;;;;;;;;;;4986141;28;20109;-70
2022/11/14 02:36:31;;;;;;;22.67;15.93;;;;;;;;;;4993974;28;20070;-70
2022/11/14 02:39:15;;;;;;;24.48;15.98;;;;;;;;;;4995607;28;20511;-70
2022/11/14 02:42:00;;;;;;;18.73;10.70;;;;;;;;;;4989022;28;20088;-70
2022/11/14 02:44:44;;;;;;;23.92;14.63;;;;;;;;;;5010405;28;20168;-71
2022/11/14 02:47:28;;;;;;;24.35;12.80;;;;;;;;;;4994250;28;20460;-70
2022/11/14 02:50:13;;;;;;;26.52;15.65;;;;;;;;;;4993197;28;20049;-70
2022/11/14 02:52:57;;;;;;;18.48;14.73;;;;;;;;;;4992020;28;20438;-70
2022/11/14 02:55:41;;;;;;;82.60;16.60;;;;;;;;;;4995196;28;20092;-70
2022/11/14 02:58:26;;;;;;;104.90;16.17;;;;;;;;;;4990600;28;20461;-71
2022/11/14 03:01:10;;;;;;;103.65;16.98;;;;;;;;;;4990435;28;20045;-70
2022/11/14 03:03:55;;;;;;;200.30;19.15;;;;;;;;;;4992518;28;20539;-70
2022/11/14 03:06:39;;;;;;;145.77;18.17;;;;;;;;;;4993015;28;20142;-70
2022/11/14 03:09:23;;;;;;;386.65;26.33;;;;;;;;;;4989157;28;20555;-71
2022/11/14 03:12:08;;;;;;;271.88;21.55;;;;;;;;;;4990626;28;20099;-71
2022/11/14 03:14:52;;;;;;;145.93;16.70;;;;;;;;;;4995358;28;20034;-70
2022/11/14 03:17:37;;;;;;;115.10;18.00;;;;;;;;;;4989318;28;20050;-71
2022/11/14 03:20:21;;;;;;;128.73;18.13;;;;;;;;;;4992747;28;20030;-71
2022/11/14 03:23:05;;;;;;;83.15;17.00;;;;;;;;;;4995504;28;20542;-70
2022/11/14 03:25:50;;;;;;;28.75;16.55;;;;;;;;;;4995089;28;20045;-70
2022/11/14 03:28:35;;;;;;;31.33;15.82;;;;;;;;;;4990929;28;20079;-71
2022/11/14 03:31:19;;;;;;;21.73;15.32;;;;;;;;;;4994355;28;20037;-71
2022/11/14 03:34:03;;;;;;;20.48;14.65;;;;;;;;;;4997300;28;20068;-71
2022/11/14 03:36:48;;;;;;;27.20;14.57;;;;;;;;;;4988740;28;20054;-70
2022/11/14 03:39:32;;;;;;;90.65;17.80;;;;;;;;;;4989905;28;20133;-70
2022/11/14 03:42:17;;;;;;;19.05;11.02;;;;;;;;;;4995178;28;20129;-70
2022/11/14 03:45:01;;;;;;;12.35;11.05;;;;;;;;;;4988955;28;20046;-70
2022/11/14 03:47:45;;;;;;;11.25;10.18;;;;;;;;;;4981641;28;20491;-70
2022/11/14 03:50:30;;;;;;;40.50;14.68;;;;;;;;;;4986499;28;20041;-70
2022/11/14 03:53:14;;;;;;;30.95;13.38;;;;;;;;;;4991555;28;20478;-70
2022/11/14 03:55:58;;;;;;;40.17;14.20;;;;;;;;;;4989938;28;20069;-70
2022/11/14 03:58:43;;;;;;;187.70;19.13;;;;;;;;;;4995277;28;20038;-70
2022/11/14 04:01:28;;;;;;;150.80;17.00;;;;;;;;;;4992816;28;20046;-70
2022/11/14 04:04:12;;;;;;;212.50;19.30;;;;;;;;;;4987992;28;20307;-70
2022/11/14 04:06:56;;;;;;;39.15;9.73;;;;;;;;;;4997247;28;20044;-70
2022/11/14 04:09:43;;;;;;;25.42;12.95;;;;;;;;;;4992934;28;20065;-70
2022/11/14 04:12:27;;;;;;;54.28;11.18;;;;;;;;;;4994375;28;20318;-70
2022/11/14 04:15:12;;;;;;;37.22;15.40;;;;;;;;;;4994560;28;20081;-70
2022/11/14 04:17:56;;;;;;;19.00;9.40;;;;;;;;;;4996784;28;20111;-70
2022/11/14 04:20:40;;;;;;;81.60;15.00;;;;;;;;;;4996301;28;20101;-70
2022/11/14 04:23:24;;;;;;;79.30;13.85;;;;;;;;;;4986611;28;20556;-70
2022/11/14 04:26:09;;;;;;;26.27;12.55;;;;;;;;;;4997789;28;20096;-71
2022/11/14 04:28:53;;;;;;;33.65;13.13;;;;;;;;;;4996006;28;20045;-70
2022/11/14 04:31:37;;;;;;;31.92;12.25;;;;;;;;;;4982721;28;20042;-70
2022/11/14 04:34:21;;;;;;;150.38;13.90;;;;;;;;;;4992423;28;20501;-70
2022/11/14 04:37:06;;;;;;;186.20;16.55;;;;;;;;;;4996727;28;20121;-71
2022/11/14 04:39:50;;;;;;;174.32;18.58;;;;;;;;;;4985505;28;20052;-70
2022/11/14 04:42:35;;;;;;;96.60;13.20;;;;;;;;;;4994704;28;20055;-70
2022/11/14 04:45:19;;;;;;;113.68;14.75;;;;;;;;;;4993941;28;20741;-70
2022/11/14 04:48:04;;;;;;;62.50;11.80;;;;;;;;;;4988955;28;20077;-70
2022/11/14 04:50:48;;;;;;;65.35;14.27;;;;;;;;;;4989038;28;20105;-71
2022/11/14 04:53:32;;;;;;;48.60;14.02;;;;;;;;;;4993380;28;20470;-70
2022/11/14 04:56:17;;;;;;;62.20;12.00;;;;;;;;;;4999404;28;20080;-70
2022/11/14 04:59:01;;;;;;;16.45;9.70;;;;;;;;;;4990443;28;20041;-70
2022/11/14 05:01:45;;;;;;;13.88;11.40;;;;;;;;;;4994351;28;20042;-70
2022/11/14 05:04:30;;;;;;;24.23;13.15;;;;;;;;;;4999901;28;20056;-71
2022/11/14 05:07:14;;;;;;;28.77;13.15;;;;;;;;;;4991479;28;20076;-70
2022/11/14 05:09:58;;;;;;;15.63;12.52;;;;;;;;;;4992532;28;20041;-71
2022/11/14 05:12:42;;;;;;;13.48;10.55;;;;;;;;;;4994922;28;20116;-71
2022/11/14 05:15:27;;;;;;;15.07;11.93;;;;;;;;;;4989468;28;20481;-71
2022/11/14 05:18:11;;;;;;;15.10;12.70;;;;;;;;;;5002499;28;20065;-70
2022/11/14 05:20:58;;;;;;;13.43;11.30;;;;;;;;;;4999909;28;20080;-70
2022/11/14 05:23:42;;;;;;;8.45;7.78;;;;;;;;;;4995455;28;20038;-70
2022/11/14 05:26:26;;;;;;;14.50;11.13;;;;;;;;;;5001400;28;20524;-70
2022/11/14 05:29:11;;;;;;;13.25;11.00;;;;;;;;;;4997350;28;20042;-72
2022/11/14 05:31:56;;;;;;;12.82;10.93;;;;;;;;;;4992307;28;20068;-71
2022/11/14 05:34:40;;;;;;;14.65;12.20;;;;;;;;;;4993649;28;20060;-71
2022/11/14 05:37:25;;;;;;;11.93;10.73;;;;;;;;;;5000961;28;20052;-71
2022/11/14 05:40:10;;;;;;;12.32;10.57;;;;;;;;;;4992828;28;20038;-71
2022/11/14 05:42:55;;;;;;;10.43;9.18;;;;;;;;;;5004165;28;20097;-71
2022/11/14 05:45:39;;;;;;;12.73;10.95;;;;;;;;;;5001162;28;20125;-71
2022/11/14 05:48:23;;;;;;;14.38;11.38;;;;;;;;;;4997687;28;20393;-71
2022/11/14 05:51:12;;;;;;;12.60;9.82;;;;;;;;;;4989905;28;20100;-71
2022/11/14 05:53:56;;;;;;;12.90;11.60;;;;;;;;;;4995313;28;20556;-71
2022/11/14 05:56:41;;;;;;;13.68;11.32;;;;;;;;;;4989486;28;20099;-71
2022/11/14 05:59:26;;;;;;;12.98;11.48;;;;;;;;;;4988443;28;20053;-71
2022/11/14 06:02:10;;;;;;;15.23;12.18;;;;;;;;;;4993358;28;20056;-71
2022/11/14 06:04:54;;;;;;;13.27;11.77;;;;;;;;;;4988512;28;20034;-71
2022/11/14 06:07:39;;;;;;;24.17;11.95;;;;;;;;;;4994800;28;20572;-71
2022/11/14 06:10:23;;;;;;;14.05;11.90;;;;;;;;;;4996514;28;20121;-71
2022/11/14 06:13:08;;;;;;;16.73;13.27;;;;;;;;;;4997465;28;20075;-71
2022/11/14 06:15:52;;;;;;;18.38;13.15;;;;;;;;;;4991771;28;20032;-71
2022/11/14 06:18:37;;;;;;;18.08;13.32;;;;;;;;;;4994481;28;20034;-71
2022/11/14 06:21:23;;;;;;;14.50;11.93;;;;;;;;;;4993217;28;20450;-71
2022/11/14 06:24:08;;;;;;;15.07;12.70;;;;;;;;;;4987954;28;20038;-71
2022/11/14 06:26:52;;;;;;;16.48;13.15;;;;;;;;;;4993523;28;20038;-71
2022/11/14 06:29:36;;;;;;;19.77;14.73;;;;;;;;;;5012220;28;20058;-71
2022/11/14 06:32:20;;;;;;;19.42;13.73;;;;;;;;;;4990127;28;20057;-72
2022/11/14 06:35:07;;;;;;;14.57;9.38;;;;;;;;;;5014301;28;20048;-71
2022/11/14 06:37:51;;;;;;;22.13;10.50;;;;;;;;;;4996956;28;20045;-71
2022/11/14 06:40:35;;;;;;;48.67;13.48;;;;;;;;;;4988657;28;20065;-71
2022/11/14 06:43:19;;;;;;;36.42;13.85;;;;;;;;;;4997238;28;20050;-72
2022/11/14 06:46:05;;;;;;;13.82;12.43;;;;;;;;;;4997371;28;20623;-69
2022/11/14 06:48:51;;;;;;;18.67;13.50;;;;;;;;;;4995263;28;20043;-71
2022/11/14 06:51:35;;;;;;;15.80;12.75;;;;;;;;;;4997027;28;20044;-71
2022/11/14 06:54:20;;;;;;;21.23;14.45;;;;;;;;;;5008994;28;20065;-71
2022/11/14 06:57:04;;;;;;;16.33;13.77;;;;;;;;;;4993289;28;20030;-70
2022/11/14 06:59:48;;;;;;;16.73;13.98;;;;;;;;;;4998798;28;20042;-70
2022/11/14 07:02:33;;;;;;;16.63;13.05;;;;;;;;;;4996112;28;20034;-72
2022/11/14 07:05:17;;;;;;;15.10;13.18;;;;;;;;;;5000861;28;20073;-72
2022/11/14 07:08:02;;;;;;;15.88;12.07;;;;;;;;;;4991063;28;20081;-72
2022/11/14 07:10:46;;;;;;;10.52;9.40;;;;;;;;;;4997133;28;20034;-72
2022/11/14 07:13:31;;;;;;;18.00;9.55;;;;;;;;;;4991326;28;20045;-72
2022/11/14 07:16:16;;;;;;;14.70;11.73;;;;;;;;;;4996656;28;20042;-70
2022/11/14 07:19:07;;;;;;;14.25;12.18;;;;;;;;;;5008565;28;20038;-72
2022/11/14 07:21:52;;;;;;;16.00;12.63;;;;;;;;;;4994206;28;20106;-73
2022/11/14 07:24:36;;;;;;;21.25;14.95;;;;;;;;;;4992270;28;20037;-70
2022/11/14 07:27:20;;;;;;;18.30;13.85;;;;;;;;;;4993144;28;20052;-71
2022/11/14 07:30:05;;;;;;;26.23;14.90;;;;;;;;;;4999218;28;20038;-72
2022/11/14 07:33:07;;;;;;;10.00;8.98;;;;;;;;;;4995953;28;20685;-72
2022/11/14 07:35:51;;;;;;;13.13;11.60;;;;;;;;;;4992215;28;20553;-72
2022/11/14 07:38:37;;;;;;;15.63;11.70;;;;;;;;;;4991842;28;20031;-72
2022/11/14 07:41:21;;;;;;;17.83;12.93;;;;;;;;;;4987769;28;20132;-72
2022/11/14 07:44:06;;;;;;;23.55;15.93;;;;;;;;;;4991988;28;20165;-73
2022/11/14 07:46:50;;;;;;;18.25;13.70;;;;;;;;;;4994977;28;20065;-72
2022/11/14 07:49:34;;;;;;;13.68;12.23;;;;;;;;;;4992607;28;20038;-72
2022/11/14 07:52:19;;;;;;;20.83;12.95;;;;;;;;;;5013064;28;20311;-72
2022/11/14 07:55:03;;;;;;;16.83;12.63;;;;;;;;;;5000008;28;20492;-71
2022/11/14 07:57:51;;;;;;;12.98;11.18;;;;;;;;;;4991724;28;20069;-72
2022/11/14 08:00:35;;;;;;;18.27;13.50;;;;;;;;;;4990067;28;20643;-71
2022/11/14 08:03:19;;;;;;;19.13;14.23;;;;;;;;;;4994875;28;20671;-72
2022/11/14 08:06:06;;;;;;;19.15;11.30;;;;;;;;;;5002701;28;20034;-71
2022/11/14 08:08:50;;;;;;;19.27;13.40;;;;;;;;;;4990689;28;20034;-71
2022/11/14 08:11:46;;;;;;;15.00;13.40;;;;;;;;;;5000800;28;20168;-72
2022/11/14 08:14:31;;;;;;;11.50;9.73;;;;;;;;;;4996562;28;20153;-72
2022/11/14 08:17:15;;;;;;;20.80;15.18;;;;;;;;;;4999013;28;20061;-72
2022/11/14 08:19:59;;;;;;;25.80;16.58;;;;;;;;;;4994869;28;20044;-71
2022/11/14 08:22:44;;;;;;;27.02;15.90;;;;;;;;;;4994035;28;20085;-72
2022/11/14 08:25:28;;;;;;;28.55;20.02;;;;;;;;;;4997446;28;20113;-72
2022/11/14 08:28:12;;;;;;;25.05;16.58;;;;;;;;;;4999573;28;20549;-71
2022/11/14 08:31:01;;;;;;;36.00;21.95;;;;;;;;;;4993869;28;20076;-71
2022/11/14 08:33:45;;;;;;;27.92;17.98;;;;;;;;;;4998382;28;20034;-72
2022/11/14 08:36:30;;;;;;;31.55;18.58;;;;;;;;;;4992425;28;20239;-72
2022/11/14 08:39:14;;;;;;;35.17;23.55;;;;;;;;;;4989005;28;20058;-73
2022/11/14 08:41:58;;;;;;;26.80;16.45;;;;;;;;;;4991684;28;20509;-72
2022/11/14 08:44:42;;;;;;;26.90;17.52;;;;;;;;;;5000992;28;20317;-72
2022/11/14 08:47:27;;;;;;;24.95;17.80;;;;;;;;;;5002939;28;20046;-72
2022/11/14 08:50:11;;;;;;;24.10;18.25;;;;;;;;;;4992224;28;20042;-72
2022/11/14 08:52:55;;;;;;;22.17;17.15;;;;;;;;;;4999045;28;20027;-72
2022/11/14 08:55:43;;;;;;;47.92;16.63;;;;;;;;;;4997115;28;20121;-71
2022/11/14 08:58:29;;;;;;;69.03;17.95;;;;;;;;;;4997460;28;20474;-72
2022/11/14 09:01:14;;;;;;;23.25;17.45;;;;;;;;;;4994178;28;20132;-73
2022/11/14 09:03:58;;;;;;;20.58;16.00;;;;;;;;;;4997583;28;20034;-72
2022/11/14 09:06:45;;;;;;;24.88;17.23;;;;;;;;;;4996384;28;20408;-71
2022/11/14 09:09:29;;;;;;;22.52;15.85;;;;;;;;;;4984204;28;20038;-71
2022/11/14 09:12:13;;;;;;;16.35;14.25;;;;;;;;;;5007778;28;20072;-71
2022/11/14 09:14:57;;;;;;;35.20;15.38;;;;;;;;;;4996513;28;20091;-71
2022/11/14 09:17:41;;;;;;;22.77;16.65;;;;;;;;;;4991662;28;20038;-73
2022/11/14 09:20:28;;;;;;;23.60;16.92;;;;;;;;;;4996717;28;20188;-72
2022/11/14 09:23:13;;;;;;;20.50;16.50;;;;;;;;;;4998305;28;20136;-72
2022/11/14 09:25:57;;;;;;;15.55;13.82;;;;;;;;;;4994555;28;20046;-72
2022/11/14 09:28:42;;;;;;;22.77;16.45;;;;;;;;;;4996478;28;20030;-71
2022/11/14 09:31:26;;;;;;;20.02;14.88;;;;;;;;;;4990101;28;20088;-71
2022/11/14 09:34:10;;;;;;;19.38;14.65;;;;;;;;;;4995291;28;20033;-72
2022/11/14 09:36:55;;;;;;;20.45;16.45;;;;;;;;;;4993826;28;20041;-70
2022/11/14 09:39:39;;;;;;;18.92;16.30;;;;;;;;;;4991776;28;20069;-71
2022/11/14 09:42:45;;;;;;;13.02;11.85;;;;;;;;;;4989050;28;20034;-71
2022/11/14 09:45:29;;;;;;;15.77;13.00;;;;;;;;;;5004031;28;20049;-71
2022/11/14 09:48:17;;;;;;;14.75;13.20;;;;;;;;;;4996878;28;20036;-71
2022/11/14 09:51:07;;;;;;;14.80;13.38;;;;;;;;;;4990266;28;20049;-70
2022/11/14 09:53:59;;;;;;;34.47;19.70;;;;;;;;;;4990920;28;20046;-71
2022/11/14 09:56:43;;;;;;;20.98;14.77;;;;;;;;;;4991872;28;20141;-71
2022/11/14 09:59:28;;;;;;;16.98;13.75;;;;;;;;;;4987887;28;20057;-70
2022/11/14 10:02:27;;;;;;;18.15;11.38;;;;;;;;;;4990704;28;20083;-71
2022/11/14 10:05:14;;;;;;;15.13;12.40;;;;;;;;;;4996641;28;20053;-71
2022/11/14 10:08:18;;;;;;;24.88;16.83;;;;;;;;;;4989405;28;20041;-72
2022/11/14 10:11:19;;;;;;;10.68;9.65;;;;;;;;;;4989001;28;20042;-71
2022/11/14 10:14:28;;;;;;;14.57;13.05;;;;;;;;;;4994721;28;20026;-71
2022/11/14 10:17:41;;;;;;;15.20;11.83;;;;;;;;;;4992749;28;20762;-72
2022/11/14 10:20:33;;;;;;;13.48;12.27;;;;;;;;;;4994500;28;20030;-70
2022/11/14 10:23:46;;;;;;;10.38;9.55;;;;;;;;;;4992208;28;20383;-71
2022/11/14 10:26:31;;;;;;;13.82;12.43;;;;;;;;;;4988979;28;20049;-71
2022/11/14 10:29:45;;;;;;;14.10;12.75;;;;;;;;;;4996200;28;20378;-72
2022/11/14 10:32:39;;;;;;;13.35;11.98;;;;;;;;;;5009605;28;20038;-72
2022/11/14 10:35:32;;;;;;;13.55;12.35;;;;;;;;;;5011419;28;20038;-71
2022/11/14 10:38:29;;;;;;;11.75;10.48;;;;;;;;;;4995769;28;20037;-71
2022/11/14 10:41:14;;;;;;;13.10;11.88;;;;;;;;;;4989145;28;20038;-71
2022/11/14 10:43:59;;;;;;;18.25;12.35;;;;;;;;;;4988481;28;20093;-72
2022/11/14 10:46:52;;;;;;;14.55;13.15;;;;;;;;;;4995606;28;20042;-71
2022/11/14 10:49:39;;;;;;;16.73;15.00;;;;;;;;;;4985995;28;20526;-72
2022/11/14 10:52:37;;;;;;;25.00;15.75;;;;;;;;;;4993351;28;20421;-73
2022/11/14 10:55:23;;;;;;;15.18;13.57;;;;;;;;;;4993345;28;20045;-71
2022/11/14 10:58:09;;;;;;;19.00;14.50;;;;;;;;;;4999537;28;20029;-72
2022/11/14 11:00:54;;;;;;;14.98;13.63;;;;;;;;;;4988257;28;20562;-72
2022/11/14 11:03:42;;;;;;;25.30;15.20;;;;;;;;;;4988917;28;20046;-72
2022/11/14 11:06:28;;;;;;;15.43;13.83;;;;;;;;;;4993960;28;20049;-72
2022/11/14 11:12:44;;;;;;;111.50;39.13;;;;;;;;;;4995898;28;20034;-71
2022/11/14 11:15:30;;;;;;;26.90;17.63;;;;;;;;;;4996571;28;20034;-71
2022/11/14 11:18:29;;;;;;;21.33;15.18;;;;;;;;;;4991794;28;20437;-72
2022/11/14 11:21:15;;;;;;;15.82;14.15;;;;;;;;;;5008266;28;20042;-72
2022/11/14 11:23:59;;;;;;;55.20;23.83;;;;;;;;;;4993033;28;20084;-71
2022/11/14 11:26:44;;;;;;;27.38;17.55;;;;;;;;;;4989972;28;20045;-71
2022/11/14 11:29:28;;;;;;;63.97;28.85;;;;;;;;;;4986028;28;20042;-70
2022/11/14 11:32:24;;;;;;;65.07;25.85;;;;;;;;;;4991168;28;20491;-71
2022/11/14 11:35:12;;;;;;;12.70;11.60;;;;;;;;;;4991776;28;20037;-71
2022/11/14 11:37:58;;;;;;;10.20;9.50;;;;;;;;;;4987013;28;20038;-70
2022/11/14 11:40:46;;;;;;;11.75;10.85;;;;;;;;;;4990812;28;20531;-71
2022/11/14 11:43:33;;;;;;;12.07;11.00;;;;;;;;;;4985377;28;20185;-71
2022/11/14 11:46:25;;;;;;;11.88;10.88;;;;;;;;;;4988292;28;20409;-72
2022/11/14 11:49:28;;;;;;;11.32;10.32;;;;;;;;;;4993638;28;20038;-70
2022/11/14 11:52:28;;;;;;;10.85;10.05;;;;;;;;;;4990860;28;20049;-71
2022/11/14 11:55:20;;;;;;;11.38;10.27;;;;;;;;;;4994284;28;20041;-70
2022/11/14 11:58:27;;;;;;;11.93;10.82;;;;;;;;;;4991018;28;20441;-70
2022/11/14 12:01:12;;;;;;;10.63;9.80;;;;;;;;;;4991866;28;20142;-70
2022/11/14 12:03:58;;;;;;;11.90;10.80;;;;;;;;;;4991409;28;20489;-70
2022/11/14 12:07:15;;;;;;;12.30;10.52;;;;;;;;;;4994321;28;20099;-69
2022/11/14 12:10:06;;;;;;;10.80;9.70;;;;;;;;;;4990366;28;20098;-68
2022/11/14 12:13:22;;;;;;;10.30;9.57;;;;;;;;;;4992946;28;20083;-70
2022/11/14 12:16:33;;;;;;;9.90;9.20;;;;;;;;;;4964241;28;20077;-73
2022/11/14 12:19:35;;;;;;;10.10;9.43;;;;;;;;;;5000930;28;20045;-70
2022/11/14 12:22:40;;;;;;;9.93;9.32;;;;;;;;;;4990598;28;20069;-72
2022/11/14 12:25:27;;;;;;;10.60;9.90;;;;;;;;;;4991500;28;20046;-72
2022/11/14 12:28:36;;;;;;;9.80;9.13;;;;;;;;;;5002096;28;20386;-72
2022/11/14 12:31:20;;;;;;;10.52;9.73;;;;;;;;;;4994012;28;20046;-71
2022/11/14 12:34:15;;;;;;;10.77;9.98;;;;;;;;;;4992670;28;20134;-70
2022/11/14 12:36:59;;;;;;;10.23;9.63;;;;;;;;;;4993323;28;20501;-71
2022/11/14 12:39:56;;;;;;;9.70;9.05;;;;;;;;;;4990736;28;20080;-71
2022/11/14 12:42:46;;;;;;;10.27;9.57;;;;;;;;;;4990612;28;20502;-71
2022/11/14 12:45:39;;;;;;;9.82;9.23;;;;;;;;;;4992076;28;20038;-71
2022/11/14 12:48:25;;;;;;;9.88;9.27;;;;;;;;;;4993807;28;20041;-71
2022/11/14 12:51:28;;;;;;;9.73;9.13;;;;;;;;;;4992949;28;20045;-71
2022/11/14 12:54:41;;;;;;;11.23;10.52;;;;;;;;;;4993194;28;20100;-71
2022/11/14 12:57:48;;;;;;;9.70;9.10;;;;;;;;;;4989097;28;20105;-71
2022/11/14 13:00:58;;;;;;;9.65;9.00;;;;;;;;;;4987675;28;20044;-71
2022/11/14 13:04:07;;;;;;;10.30;9.60;;;;;;;;;;4991586;28;20429;-71
2022/11/14 13:07:15;;;;;;;9.80;9.18;;;;;;;;;;4984630;28;20042;-71
2022/11/14 13:10:08;;;;;;;8.98;8.40;;;;;;;;;;4991659;28;20095;-71
2022/11/14 13:22:43;;;;;;;10.55;9.75;;;;;;;;;;4993460;28;20402;-71
2022/11/14 13:25:27;;;;;;;10.60;9.80;;;;;;;;;;4989329;28;20049;-71
2022/11/14 13:28:50;;;;;;;11.38;10.48;;;;;;;;;;5000866;28;20077;-70
2022/11/14 13:31:34;;;;;;;9.98;9.27;;;;;;;;;;4902349;29;20319;-70
2022/11/14 13:34:28;;;;;;;9.77;9.13;;;;;;;;;;4909029;29;20591;-71
2022/11/14 13:37:47;;;;;;;9.00;8.18;;;;;;;;;;4899082;29;20532;-70
2022/11/14 13:40:42;;;;;;;9.98;9.07;;;;;;;;;;4890441;29;20503;-70
2022/11/14 13:43:47;;;;;;;9.35;8.73;;;;;;;;;;4908704;29;20064;-71
2022/11/14 13:46:49;;;;;;;9.95;9.20;;;;;;;;;;4907704;29;20123;-70
2022/11/14 13:49:58;;;;;;;9.50;8.80;;;;;;;;;;4906939;29;20447;-70
2022/11/14 13:52:45;;;;;;;9.02;8.40;;;;;;;;;;4904963;29;20104;-70
2022/11/14 13:55:43;;;;;;;9.60;8.70;;;;;;;;;;4904742;29;20544;-70
2022/11/14 13:58:41;;;;;;;;;;;;;;;;;;4909155;29;20039;-70
2022/11/14 14:02:01;;;;;;;9.10;8.50;;;;;;;;;;4923376;28;19967;-70
2022/11/14 14:04:59;;;;;;;9.07;8.50;;;;;;;;;;4994337;28;20049;-71
2022/11/14 14:07:56;;;;;;;9.20;8.60;;;;;;;;;;4997732;28;20034;-71
2022/11/14 14:10:50;;;;;;;9.10;8.23;;;;;;;;;;4989220;28;20463;-69
2022/11/14 14:13:53;;;;;;;9.73;9.02;;;;;;;;;;4990265;28;20045;-70
2022/11/14 14:16:48;;;;;;;10.02;9.38;;;;;;;;;;4996763;28;20425;-70
2022/11/14 14:19:47;;;;;;;10.23;9.13;;;;;;;;;;4990711;28;20092;-70
2022/11/14 14:22:43;;;;;;;9.43;8.83;;;;;;;;;;4992620;28;20393;-70
2022/11/14 14:25:36;;;;;;;9.50;8.80;;;;;;;;;;4993750;28;20054;-70
2022/11/14 14:28:38;;;;;;;9.38;8.80;;;;;;;;;;4990852;28;20041;-70
2022/11/14 14:31:23;;;;;;;10.43;9.40;;;;;;;;;;4988778;28;20041;-70
2022/11/14 14:34:20;;;;;;;10.65;9.77;;;;;;;;;;4994644;28;20057;-70
2022/11/14 14:37:23;;;;;;;10.02;9.32;;;;;;;;;;5000743;28;20099;-70
2022/11/14 14:40:22;;;;;;;11.05;10.15;;;;;;;;;;4988361;28;20105;-70
2022/11/14 14:43:06;;;;;;;11.30;10.40;;;;;;;;;;4991355;28;20099;-71
2022/11/14 14:45:52;;;;;;;11.23;10.18;;;;;;;;;;4997072;28;20427;-70
2022/11/14 14:48:42;;;;;;;11.45;10.40;;;;;;;;;;4986116;28;20034;-70
2022/11/14 14:51:32;;;;;;;10.20;9.50;;;;;;;;;;4991459;28;20047;-70
2022/11/14 14:54:25;;;;;;;10.65;9.65;;;;;;;;;;4994935;28;20061;-70
2022/11/14 14:57:16;;;;;;;12.52;11.45;;;;;;;;;;4994377;28;20033;-70
2022/11/14 15:00:06;;;;;;;10.70;9.93;;;;;;;;;;5004519;28;20116;-69
2022/11/14 15:02:54;;;;;;;15.30;13.32;;;;;;;;;;4996749;28;20034;-70
2022/11/14 15:05:38;;;;;;;10.18;9.45;;;;;;;;;;4990288;28;20604;-69
2022/11/14 15:08:22;;;;;;;11.27;10.38;;;;;;;;;;4985175;28;20124;-70
2022/11/14 15:11:07;;;;;;;10.00;9.40;;;;;;;;;;4995727;28;20033;-70
2022/11/14 15:13:54;;;;;;;10.70;9.90;;;;;;;;;;4997697;28;20033;-70
2022/11/14 15:16:38;;;;;;;10.68;9.88;;;;;;;;;;4990288;28;20093;-70
2022/11/14 15:19:24;;;;;;;11.07;10.27;;;;;;;;;;4995034;28;20041;-70
2022/11/14 15:22:09;;;;;;;11.38;10.38;;;;;;;;;;4998185;28;20084;-69
2022/11/14 15:25:05;;;;;;;10.05;9.35;;;;;;;;;;4991077;28;20046;-70
2022/11/14 15:27:53;;;;;;;10.93;10.07;;;;;;;;;;4990539;28;20504;-70
2022/11/14 15:30:38;;;;;;;9.98;9.35;;;;;;;;;;4995395;28;20034;-70
2022/11/14 15:33:34;;;;;;;9.90;9.20;;;;;;;;;;4994642;28;20038;-70
2022/11/14 15:36:19;;;;;;;10.32;9.57;;;;;;;;;;4989455;28;20034;-70
2022/11/14 15:39:26;;;;;;;10.90;10.13;;;;;;;;;;4995832;28;20113;-70
2022/11/14 15:42:13;;;;;;;10.70;10.00;;;;;;;;;;4997347;28;20100;-70
2022/11/14 15:44:58;;;;;;;10.00;9.27;;;;;;;;;;4988384;28;20066;-70
2022/11/14 15:47:42;;;;;;;13.25;11.95;;;;;;;;;;4997011;28;20052;-70
2022/11/14 15:50:30;;;;;;;10.60;9.68;;;;;;;;;;4997786;28;20073;-69
2022/11/14 15:53:23;;;;;;;10.63;9.82;;;;;;;;;;4989592;28;20034;-70
2022/11/14 15:56:11;;;;;;;10.25;9.55;;;;;;;;;;4990092;28;20052;-70
2022/11/14 15:58:55;;;;;;;12.75;11.18;;;;;;;;;;4995454;28;20172;-70
2022/11/14 16:01:41;;;;;;;9.88;9.27;;;;;;;;;;4995257;28;20038;-70
2022/11/14 16:04:31;;;;;;;12.00;10.93;;;;;;;;;;4986199;28;20133;-70
2022/11/14 16:07:16;;;;;;;45.30;22.23;;;;;;;;;;4997364;28;20041;-70
2022/11/14 16:10:00;;;;;;;21.10;14.57;;;;;;;;;;4989083;28;20045;-69
2022/11/14 16:12:45;;;;;;;28.60;16.98;;;;;;;;;;4986099;28;20045;-70
2022/11/14 16:15:29;;;;;;;18.52;12.82;;;;;;;;;;4996638;28;20069;-70
2022/11/14 16:18:14;;;;;;;10.82;9.90;;;;;;;;;;4993351;28;20622;-69
2022/11/14 16:20:58;;;;;;;11.48;10.38;;;;;;;;;;4985463;28;20116;-69
2022/11/14 16:23:42;;;;;;;10.73;9.93;;;;;;;;;;4996542;28;20045;-69
2022/11/14 16:26:28;;;;;;;11.13;10.23;;;;;;;;;;5002046;28;20038;-70
2022/11/14 16:29:13;;;;;;;11.85;10.77;;;;;;;;;;4986358;28;20073;-70
2022/11/14 16:31:57;;;;;;;12.32;10.82;;;;;;;;;;4994790;28;20481;-70
2022/11/14 16:34:41;;;;;;;11.07;9.95;;;;;;;;;;4997942;28;20064;-69
2022/11/14 16:37:26;;;;;;;14.07;10.52;;;;;;;;;;4989381;28;20112;-69